sensor_id;sensor_type;location;lat;lon;timestamp;temperature;humidity
35746;DHT22;21870;42.812;74.628;2023-11-18T00:01:31;17.60;59.40
35746;DHT22;21870;42.812;74.628;2023-11-18T00:03:59;17.70;58.90
35746;DHT22;21870;42.812;74.628;2023-11-18T00:06:25;17.70;59.20
35746;DHT22;21870;42.812;74.628;2023-11-18T00:08:51;17.70;59.10
35746;DHT22;21870;42.812;74.628;2023-11-18T00:11:17;17.70;59.40
35746;DHT22;21870;42.812;74.628;2023-11-18T00:13:44;17.60;59.50
35746;DHT22;21870;42.812;74.628;2023-11-18T00:16:10;17.60;60.20
35746;DHT22;21870;42.812;74.628;2023-11-18T00:18:42;17.50;61.10
35746;DHT22;21870;42.812;74.628;2023-11-18T00:21:08;17.40;61.00
35746;DHT22;21870;42.812;74.628;2023-11-18T00:23:35;17.40;61.40
35746;DHT22;21870;42.812;74.628;2023-11-18T00:26:01;17.20;61.80
35746;DHT22;21870;42.812;74.628;2023-11-18T00:28:27;17.10;62.20
35746;DHT22;21870;42.812;74.628;2023-11-18T00:30:53;16.90;62.80
35746;DHT22;21870;42.812;74.628;2023-11-18T00:33:19;16.80;63.80
35746;DHT22;21870;42.812;74.628;2023-11-18T00:35:45;16.70;63.80
35746;DHT22;21870;42.812;74.628;2023-11-18T00:38:12;16.70;64.20
35746;DHT22;21870;42.812;74.628;2023-11-18T00:40:38;16.60;64.30
35746;DHT22;21870;42.812;74.628;2023-11-18T00:43:04;16.60;65.70
35746;DHT22;21870;42.812;74.628;2023-11-18T00:45:30;16.50;65.50
35746;DHT22;21870;42.812;74.628;2023-11-18T00:47:56;16.50;66.00
35746;DHT22;21870;42.812;74.628;2023-11-18T00:50:22;16.30;66.20
35746;DHT22;21870;42.812;74.628;2023-11-18T00:52:48;16.30;66.90
35746;DHT22;21870;42.812;74.628;2023-11-18T00:55:15;16.10;68.50
35746;DHT22;21870;42.812;74.628;2023-11-18T00:57:44;15.90;68.20
35746;DHT22;21870;42.812;74.628;2023-11-18T01:00:14;15.70;69.00
35746;DHT22;21870;42.812;74.628;2023-11-18T01:02:48;15.40;71.30
35746;DHT22;21870;42.812;74.628;2023-11-18T01:05:15;15.50;69.80
35746;DHT22;21870;42.812;74.628;2023-11-18T01:07:41;15.60;67.80
35746;DHT22;21870;42.812;74.628;2023-11-18T01:10:09;15.80;66.50
35746;DHT22;21870;42.812;74.628;2023-11-18T01:12:36;16.10;64.50
35746;DHT22;21870;42.812;74.628;2023-11-18T01:15:03;16.40;62.10
35746;DHT22;21870;42.812;74.628;2023-11-18T01:17:29;16.80;60.60
35746;DHT22;21870;42.812;74.628;2023-11-18T01:19:57;17.10;60.00
35746;DHT22;21870;42.812;74.628;2023-11-18T01:22:24;17.30;59.60
35746;DHT22;21870;42.812;74.628;2023-11-18T01:24:50;17.50;59.10
35746;DHT22;21870;42.812;74.628;2023-11-18T01:27:19;17.70;58.80
35746;DHT22;21870;42.812;74.628;2023-11-18T01:29:46;17.80;58.70
35746;DHT22;21870;42.812;74.628;2023-11-18T01:32:14;17.90;58.50
35746;DHT22;21870;42.812;74.628;2023-11-18T01:34:41;17.90;58.30
35746;DHT22;21870;42.812;74.628;2023-11-18T01:37:09;17.90;58.30
35746;DHT22;21870;42.812;74.628;2023-11-18T01:39:35;18.00;58.30
35746;DHT22;21870;42.812;74.628;2023-11-18T01:42:05;18.00;58.50
35746;DHT22;21870;42.812;74.628;2023-11-18T01:44:31;18.00;58.30
35746;DHT22;21870;42.812;74.628;2023-11-18T01:46:59;18.00;58.60
35746;DHT22;21870;42.812;74.628;2023-11-18T01:49:32;18.00;58.70
35746;DHT22;21870;42.812;74.628;2023-11-18T01:52:02;17.90;59.20
35746;DHT22;21870;42.812;74.628;2023-11-18T01:54:29;17.90;59.20
35746;DHT22;21870;42.812;74.628;2023-11-18T01:56:56;17.90;59.50
35746;DHT22;21870;42.812;74.628;2023-11-18T01:59:23;17.80;59.80
35746;DHT22;21870;42.812;74.628;2023-11-18T02:01:55;17.80;60.10
35746;DHT22;21870;42.812;74.628;2023-11-18T02:04:25;17.70;61.80
35746;DHT22;21870;42.812;74.628;2023-11-18T02:06:52;17.60;61.90
35746;DHT22;21870;42.812;74.628;2023-11-18T02:09:21;17.50;61.50
35746;DHT22;21870;42.812;74.628;2023-11-18T02:12:19;17.50;61.20
35746;DHT22;21870;42.812;74.628;2023-11-18T02:14:48;17.40;61.80
35746;DHT22;21870;42.812;74.628;2023-11-18T02:17:20;17.30;62.70
35746;DHT22;21870;42.812;74.628;2023-11-18T02:19:55;17.10;63.50
35746;DHT22;21870;42.812;74.628;2023-11-18T02:22:22;17.00;64.00
35746;DHT22;21870;42.812;74.628;2023-11-18T02:24:53;17.00;63.30
35746;DHT22;21870;42.812;74.628;2023-11-18T02:27:19;16.90;63.80
35746;DHT22;21870;42.812;74.628;2023-11-18T02:29:48;16.90;63.30
35746;DHT22;21870;42.812;74.628;2023-11-18T02:34:47;16.90;63.40
35746;DHT22;21870;42.812;74.628;2023-11-18T02:37:14;16.90;63.20
35746;DHT22;21870;42.812;74.628;2023-11-18T02:39:47;17.00;62.50
35746;DHT22;21870;42.812;74.628;2023-11-18T02:42:17;16.90;61.70
35746;DHT22;21870;42.812;74.628;2023-11-18T02:44:44;17.00;60.60
35746;DHT22;21870;42.812;74.628;2023-11-18T02:47:11;17.20;59.70
35746;DHT22;21870;42.812;74.628;2023-11-18T02:49:37;17.30;59.40
35746;DHT22;21870;42.812;74.628;2023-11-18T02:52:03;17.50;59.00
35746;DHT22;21870;42.812;74.628;2023-11-18T02:54:30;17.60;58.90
35746;DHT22;21870;42.812;74.628;2023-11-18T02:56:56;17.80;58.50
35746;DHT22;21870;42.812;74.628;2023-11-18T02:59:22;17.90;59.00
35746;DHT22;21870;42.812;74.628;2023-11-18T03:01:48;18.00;58.50
35746;DHT22;21870;42.812;74.628;2023-11-18T03:04:18;18.10;58.10
35746;DHT22;21870;42.812;74.628;2023-11-18T03:06:44;18.20;57.80
35746;DHT22;21870;42.812;74.628;2023-11-18T03:09:11;18.40;57.40
35746;DHT22;21870;42.812;74.628;2023-11-18T03:11:39;18.60;57.40
35746;DHT22;21870;42.812;74.628;2023-11-18T03:14:05;18.70;57.40
35746;DHT22;21870;42.812;74.628;2023-11-18T03:16:36;18.70;57.60
35746;DHT22;21870;42.812;74.628;2023-11-18T03:19:02;18.90;57.80
35746;DHT22;21870;42.812;74.628;2023-11-18T03:21:30;19.10;57.80
35746;DHT22;21870;42.812;74.628;2023-11-18T03:23:56;19.40;57.90
35746;DHT22;21870;42.812;74.628;2023-11-18T03:26:22;19.80;57.90
35746;DHT22;21870;42.812;74.628;2023-11-18T03:28:48;20.10;57.80
35746;DHT22;21870;42.812;74.628;2023-11-18T03:31:15;20.50;57.70
35746;DHT22;21870;42.812;74.628;2023-11-18T03:33:41;20.70;57.60
35746;DHT22;21870;42.812;74.628;2023-11-18T03:36:08;21.00;57.50
35746;DHT22;21870;42.812;74.628;2023-11-18T03:38:34;21.30;57.60
35746;DHT22;21870;42.812;74.628;2023-11-18T03:41:00;21.20;57.80
35746;DHT22;21870;42.812;74.628;2023-11-18T03:43:26;21.20;57.10
35746;DHT22;21870;42.812;74.628;2023-11-18T03:45:53;21.20;57.00
35746;DHT22;21870;42.812;74.628;2023-11-18T03:48:23;21.20;57.70
35746;DHT22;21870;42.812;74.628;2023-11-18T03:50:49;21.10;58.80
35746;DHT22;21870;42.812;74.628;2023-11-18T03:53:15;21.10;58.80
35746;DHT22;21870;42.812;74.628;2023-11-18T03:55:41;21.00;58.40
35746;DHT22;21870;42.812;74.628;2023-11-18T03:58:07;21.00;58.50
35746;DHT22;21870;42.812;74.628;2023-11-18T04:00:34;21.10;58.10
35746;DHT22;21870;42.812;74.628;2023-11-18T04:03:00;21.10;58.10
35746;DHT22;21870;42.812;74.628;2023-11-18T04:05:26;21.10;58.20
35746;DHT22;21870;42.812;74.628;2023-11-18T04:07:52;21.00;58.30
35746;DHT22;21870;42.812;74.628;2023-11-18T04:10:18;20.90;58.80
35746;DHT22;21870;42.812;74.628;2023-11-18T04:12:46;20.90;59.20
35746;DHT22;21870;42.812;74.628;2023-11-18T04:15:13;20.80;59.40
35746;DHT22;21870;42.812;74.628;2023-11-18T04:17:39;20.90;59.60
35746;DHT22;21870;42.812;74.628;2023-11-18T04:20:07;21.10;60.50
35746;DHT22;21870;42.812;74.628;2023-11-18T04:22:43;21.30;61.10
35746;DHT22;21870;42.812;74.628;2023-11-18T04:25:10;21.40;61.80
35746;DHT22;21870;42.812;74.628;2023-11-18T04:27:40;21.50;62.00
35746;DHT22;21870;42.812;74.628;2023-11-18T04:30:07;21.50;61.40
35746;DHT22;21870;42.812;74.628;2023-11-18T04:32:34;21.60;61.20
35746;DHT22;21870;42.812;74.628;2023-11-18T04:35:01;21.60;61.30
35746;DHT22;21870;42.812;74.628;2023-11-18T04:37:35;21.70;60.60
35746;DHT22;21870;42.812;74.628;2023-11-18T04:40:02;22.00;60.30
35746;DHT22;21870;42.812;74.628;2023-11-18T04:42:29;22.40;60.30
35746;DHT22;21870;42.812;74.628;2023-11-18T04:44:56;22.70;60.20
35746;DHT22;21870;42.812;74.628;2023-11-18T04:47:23;23.00;59.50
35746;DHT22;21870;42.812;74.628;2023-11-18T04:49:51;23.30;58.30
35746;DHT22;21870;42.812;74.628;2023-11-18T04:52:17;23.40;57.40
35746;DHT22;21870;42.812;74.628;2023-11-18T04:54:44;23.60;58.00
35746;DHT22;21870;42.812;74.628;2023-11-18T04:57:14;23.90;57.90
35746;DHT22;21870;42.812;74.628;2023-11-18T04:59:41;24.00;57.20
35746;DHT22;21870;42.812;74.628;2023-11-18T05:02:08;23.90;56.60
35746;DHT22;21870;42.812;74.628;2023-11-18T05:04:34;24.00;57.10
35746;DHT22;21870;42.812;74.628;2023-11-18T05:07:01;23.90;54.90
35746;DHT22;21870;42.812;74.628;2023-11-18T05:09:28;23.90;55.80
35746;DHT22;21870;42.812;74.628;2023-11-18T05:11:54;23.90;55.90
35746;DHT22;21870;42.812;74.628;2023-11-18T05:14:20;24.00;55.30
35746;DHT22;21870;42.812;74.628;2023-11-18T05:16:47;24.00;55.50
35746;DHT22;21870;42.812;74.628;2023-11-18T05:19:13;23.80;56.30
35746;DHT22;21870;42.812;74.628;2023-11-18T05:21:40;23.90;55.60
35746;DHT22;21870;42.812;74.628;2023-11-18T05:24:06;23.80;57.80
35746;DHT22;21870;42.812;74.628;2023-11-18T05:26:32;23.70;57.90
35746;DHT22;21870;42.812;74.628;2023-11-18T05:29:00;23.60;58.70
35746;DHT22;21870;42.812;74.628;2023-11-18T05:31:27;23.60;57.80
35746;DHT22;21870;42.812;74.628;2023-11-18T05:33:54;23.60;59.40
35746;DHT22;21870;42.812;74.628;2023-11-18T05:36:21;23.70;59.80
35746;DHT22;21870;42.812;74.628;2023-11-18T05:38:54;23.80;61.30
35746;DHT22;21870;42.812;74.628;2023-11-18T05:41:20;23.90;61.50
35746;DHT22;21870;42.812;74.628;2023-11-18T05:43:54;24.00;60.00
35746;DHT22;21870;42.812;74.628;2023-11-18T05:46:26;24.10;58.70
35746;DHT22;21870;42.812;74.628;2023-11-18T05:48:55;24.20;58.90
35746;DHT22;21870;42.812;74.628;2023-11-18T05:51:26;24.10;59.00
35746;DHT22;21870;42.812;74.628;2023-11-18T05:53:52;23.90;59.30
35746;DHT22;21870;42.812;74.628;2023-11-18T05:56:19;23.80;59.20
35746;DHT22;21870;42.812;74.628;2023-11-18T05:58:47;23.70;59.10
35746;DHT22;21870;42.812;74.628;2023-11-18T06:01:15;23.60;59.10
35746;DHT22;21870;42.812;74.628;2023-11-18T06:03:42;23.50;58.50
35746;DHT22;21870;42.812;74.628;2023-11-18T06:06:10;23.40;58.50
35746;DHT22;21870;42.812;74.628;2023-11-18T06:08:37;23.60;59.00
35746;DHT22;21870;42.812;74.628;2023-11-18T06:11:16;23.60;58.80
35746;DHT22;21870;42.812;74.628;2023-11-18T06:13:49;23.90;59.30
35746;DHT22;21870;42.812;74.628;2023-11-18T06:16:19;24.00;59.90
35746;DHT22;21870;42.812;74.628;2023-11-18T06:18:56;24.10;59.00
35746;DHT22;21870;42.812;74.628;2023-11-18T06:21:26;24.00;59.80
35746;DHT22;21870;42.812;74.628;2023-11-18T06:23:57;24.00;59.30
35746;DHT22;21870;42.812;74.628;2023-11-18T06:26:24;24.10;58.30
35746;DHT22;21870;42.812;74.628;2023-11-18T06:28:55;24.20;58.10
35746;DHT22;21870;42.812;74.628;2023-11-18T06:31:23;24.40;58.30
35746;DHT22;21870;42.812;74.628;2023-11-18T06:33:52;24.40;58.00
35746;DHT22;21870;42.812;74.628;2023-11-18T06:36:19;24.30;57.80
35746;DHT22;21870;42.812;74.628;2023-11-18T06:38:51;24.10;58.40
35746;DHT22;21870;42.812;74.628;2023-11-18T06:41:18;24.00;59.00
35746;DHT22;21870;42.812;74.628;2023-11-18T06:43:45;23.90;59.10
35746;DHT22;21870;42.812;74.628;2023-11-18T06:48:48;24.00;60.00
35746;DHT22;21870;42.812;74.628;2023-11-18T06:51:16;24.20;61.30
35746;DHT22;21870;42.812;74.628;2023-11-18T06:53:42;24.20;61.30
35746;DHT22;21870;42.812;74.628;2023-11-18T06:56:11;24.10;60.90
35746;DHT22;21870;42.812;74.628;2023-11-18T06:58:39;24.00;60.30
35746;DHT22;21870;42.812;74.628;2023-11-18T07:01:05;23.90;60.80
35746;DHT22;21870;42.812;74.628;2023-11-18T07:03:32;24.00;61.30
35746;DHT22;21870;42.812;74.628;2023-11-18T07:05:58;24.00;61.20
35746;DHT22;21870;42.812;74.628;2023-11-18T07:08:24;23.90;60.90
35746;DHT22;21870;42.812;74.628;2023-11-18T07:10:50;23.70;61.30
35746;DHT22;21870;42.812;74.628;2023-11-18T07:13:16;23.70;61.50
35746;DHT22;21870;42.812;74.628;2023-11-18T07:15:43;23.70;60.70
35746;DHT22;21870;42.812;74.628;2023-11-18T07:18:09;23.70;58.90
35746;DHT22;21870;42.812;74.628;2023-11-18T07:20:35;23.60;59.40
35746;DHT22;21870;42.812;74.628;2023-11-18T07:23:02;23.70;59.00
35746;DHT22;21870;42.812;74.628;2023-11-18T07:25:28;23.70;58.90
35746;DHT22;21870;42.812;74.628;2023-11-18T07:27:54;23.60;59.30
35746;DHT22;21870;42.812;74.628;2023-11-18T07:30:21;23.60;61.30
35746;DHT22;21870;42.812;74.628;2023-11-18T07:32:48;23.60;61.70
35746;DHT22;21870;42.812;74.628;2023-11-18T07:35:16;23.60;61.50
35746;DHT22;21870;42.812;74.628;2023-11-18T07:37:45;23.70;61.60
35746;DHT22;21870;42.812;74.628;2023-11-18T07:40:11;23.50;61.90
35746;DHT22;21870;42.812;74.628;2023-11-18T07:42:38;23.40;62.60
35746;DHT22;21870;42.812;74.628;2023-11-18T07:45:07;23.40;62.60
35746;DHT22;21870;42.812;74.628;2023-11-18T07:47:44;23.50;63.90
35746;DHT22;21870;42.812;74.628;2023-11-18T07:50:10;23.40;65.60
35746;DHT22;21870;42.812;74.628;2023-11-18T07:52:39;23.30;65.50
35746;DHT22;21870;42.812;74.628;2023-11-18T07:55:06;23.40;64.30
35746;DHT22;21870;42.812;74.628;2023-11-18T07:57:36;23.40;64.50
35746;DHT22;21870;42.812;74.628;2023-11-18T08:00:02;23.50;63.30
35746;DHT22;21870;42.812;74.628;2023-11-18T08:02:39;23.30;62.50
35746;DHT22;21870;42.812;74.628;2023-11-18T08:05:05;23.30;62.80
35746;DHT22;21870;42.812;74.628;2023-11-18T08:07:41;23.30;64.60
35746;DHT22;21870;42.812;74.628;2023-11-18T08:10:09;23.30;66.60
35746;DHT22;21870;42.812;74.628;2023-11-18T08:12:39;23.20;68.00
35746;DHT22;21870;42.812;74.628;2023-11-18T08:15:09;23.10;69.70
35746;DHT22;21870;42.812;74.628;2023-11-18T08:17:35;23.00;69.30
35746;DHT22;21870;42.812;74.628;2023-11-18T08:20:02;22.90;69.10
35746;DHT22;21870;42.812;74.628;2023-11-18T08:22:40;22.90;71.30
35746;DHT22;21870;42.812;74.628;2023-11-18T08:25:08;22.70;69.50
35746;DHT22;21870;42.812;74.628;2023-11-18T08:27:34;22.70;68.60
35746;DHT22;21870;42.812;74.628;2023-11-18T08:30:02;22.70;70.90
35746;DHT22;21870;42.812;74.628;2023-11-18T08:32:31;22.70;69.20
35746;DHT22;21870;42.812;74.628;2023-11-18T08:34:58;22.70;67.80
35746;DHT22;21870;42.812;74.628;2023-11-18T08:37:24;22.70;67.60
35746;DHT22;21870;42.812;74.628;2023-11-18T08:39:50;22.70;65.60
35746;DHT22;21870;42.812;74.628;2023-11-18T08:42:16;22.60;65.40
35746;DHT22;21870;42.812;74.628;2023-11-18T08:44:42;22.50;63.80
35746;DHT22;21870;42.812;74.628;2023-11-18T08:47:09;22.30;64.40
35746;DHT22;21870;42.812;74.628;2023-11-18T08:49:35;22.20;64.70
35746;DHT22;21870;42.812;74.628;2023-11-18T08:52:03;22.10;64.40
35746;DHT22;21870;42.812;74.628;2023-11-18T08:54:35;22.00;63.00
35746;DHT22;21870;42.812;74.628;2023-11-18T08:57:04;22.10;63.30
35746;DHT22;21870;42.812;74.628;2023-11-18T08:59:49;22.20;63.70
35746;DHT22;21870;42.812;74.628;2023-11-18T09:02:18;22.30;62.90
35746;DHT22;21870;42.812;74.628;2023-11-18T09:04:49;22.40;59.90
35746;DHT22;21870;42.812;74.628;2023-11-18T09:07:16;22.50;59.10
35746;DHT22;21870;42.812;74.628;2023-11-18T09:09:43;22.70;60.50
35746;DHT22;21870;42.812;74.628;2023-11-18T09:12:12;22.80;60.10
35746;DHT22;21870;42.812;74.628;2023-11-18T09:14:40;22.90;59.80
35746;DHT22;21870;42.812;74.628;2023-11-18T09:17:08;22.80;59.60
35746;DHT22;21870;42.812;74.628;2023-11-18T09:19:35;22.70;61.10
35746;DHT22;21870;42.812;74.628;2023-11-18T09:22:01;22.60;61.80
35746;DHT22;21870;42.812;74.628;2023-11-18T09:24:27;22.60;62.10
35746;DHT22;21870;42.812;74.628;2023-11-18T09:26:53;22.50;61.90
35746;DHT22;21870;42.812;74.628;2023-11-18T09:29:20;22.60;62.30
35746;DHT22;21870;42.812;74.628;2023-11-18T09:31:50;22.70;61.70
35746;DHT22;21870;42.812;74.628;2023-11-18T09:34:18;22.60;61.90
35746;DHT22;21870;42.812;74.628;2023-11-18T09:36:53;22.60;62.30
35746;DHT22;21870;42.812;74.628;2023-11-18T09:39:20;22.70;63.20
35746;DHT22;21870;42.812;74.628;2023-11-18T09:42:06;22.60;64.40
35746;DHT22;21870;42.812;74.628;2023-11-18T09:44:38;22.60;64.10
35746;DHT22;21870;42.812;74.628;2023-11-18T09:47:08;22.60;65.10
35746;DHT22;21870;42.812;74.628;2023-11-18T09:49:43;22.50;68.90
35746;DHT22;21870;42.812;74.628;2023-11-18T09:52:15;22.50;67.50
35746;DHT22;21870;42.812;74.628;2023-11-18T09:57:38;22.40;65.90
35746;DHT22;21870;42.812;74.628;2023-11-18T10:00:07;22.30;66.90
35746;DHT22;21870;42.812;74.628;2023-11-18T10:02:48;22.30;68.10
35746;DHT22;21870;42.812;74.628;2023-11-18T10:05:17;22.20;70.20
35746;DHT22;21870;42.812;74.628;2023-11-18T10:07:50;22.20;70.60
35746;DHT22;21870;42.812;74.628;2023-11-18T10:10:16;22.20;71.70
35746;DHT22;21870;42.812;74.628;2023-11-18T10:12:44;22.00;71.60
35746;DHT22;21870;42.812;74.628;2023-11-18T10:15:17;22.00;69.30
35746;DHT22;21870;42.812;74.628;2023-11-18T10:17:45;21.90;67.60
35746;DHT22;21870;42.812;74.628;2023-11-18T10:20:49;21.90;66.90
35746;DHT22;21870;42.812;74.628;2023-11-18T10:23:20;21.90;68.10
35746;DHT22;21870;42.812;74.628;2023-11-18T10:25:56;21.80;68.40
35746;DHT22;21870;42.812;74.628;2023-11-18T10:28:27;21.80;67.40
35746;DHT22;21870;42.812;74.628;2023-11-18T10:30:57;21.80;66.40
35746;DHT22;21870;42.812;74.628;2023-11-18T10:33:26;21.70;65.80
35746;DHT22;21870;42.812;74.628;2023-11-18T10:36:00;21.70;66.00
35746;DHT22;21870;42.812;74.628;2023-11-18T10:38:33;21.60;65.00
35746;DHT22;21870;42.812;74.628;2023-11-18T10:41:05;21.50;64.30
35746;DHT22;21870;42.812;74.628;2023-11-18T10:43:31;21.30;66.00
35746;DHT22;21870;42.812;74.628;2023-11-18T10:46:19;21.10;67.60
35746;DHT22;21870;42.812;74.628;2023-11-18T10:48:51;21.00;68.90
35746;DHT22;21870;42.812;74.628;2023-11-18T10:51:19;20.80;69.30
35746;DHT22;21870;42.812;74.628;2023-11-18T10:53:50;20.70;69.70
35746;DHT22;21870;42.812;74.628;2023-11-18T10:56:26;20.50;69.70
35746;DHT22;21870;42.812;74.628;2023-11-18T10:58:58;20.40;70.10
35746;DHT22;21870;42.812;74.628;2023-11-18T11:01:35;20.40;71.00
35746;DHT22;21870;42.812;74.628;2023-11-18T11:04:13;20.30;73.30
35746;DHT22;21870;42.812;74.628;2023-11-18T11:06:44;20.10;73.90
35746;DHT22;21870;42.812;74.628;2023-11-18T11:09:28;20.10;74.50
35746;DHT22;21870;42.812;74.628;2023-11-18T11:12:04;20.10;75.60
35746;DHT22;21870;42.812;74.628;2023-11-18T11:14:36;19.80;76.70
35746;DHT22;21870;42.812;74.628;2023-11-18T11:17:13;19.70;78.00
35746;DHT22;21870;42.812;74.628;2023-11-18T11:19:55;19.70;79.20
35746;DHT22;21870;42.812;74.628;2023-11-18T11:22:25;19.50;80.10
35746;DHT22;21870;42.812;74.628;2023-11-18T11:25:20;19.50;81.10
35746;DHT22;21870;42.812;74.628;2023-11-18T11:27:55;19.30;82.10
35746;DHT22;21870;42.812;74.628;2023-11-18T11:30:45;19.30;82.90
35746;DHT22;21870;42.812;74.628;2023-11-18T11:35:52;19.00;85.00
35746;DHT22;21870;42.812;74.628;2023-11-18T11:38:24;18.80;86.50
35746;DHT22;21870;42.812;74.628;2023-11-18T11:40:50;18.50;88.20
35746;DHT22;21870;42.812;74.628;2023-11-18T11:43:20;18.40;89.20
35746;DHT22;21870;42.812;74.628;2023-11-18T11:45:51;18.30;90.00
35746;DHT22;21870;42.812;74.628;2023-11-18T11:48:18;18.20;90.20
35746;DHT22;21870;42.812;74.628;2023-11-18T11:54:02;18.00;90.80
35746;DHT22;21870;42.812;74.628;2023-11-18T11:56:43;18.00;91.30
35746;DHT22;21870;42.812;74.628;2023-11-18T11:59:16;17.90;92.00
35746;DHT22;21870;42.812;74.628;2023-11-18T12:01:42;17.90;92.40
35746;DHT22;21870;42.812;74.628;2023-11-18T12:04:15;17.90;93.10
35746;DHT22;21870;42.812;74.628;2023-11-18T12:06:48;17.80;93.90
35746;DHT22;21870;42.812;74.628;2023-11-18T12:09:19;17.70;95.00
35746;DHT22;21870;42.812;74.628;2023-11-18T12:11:46;17.60;95.80
35746;DHT22;21870;42.812;74.628;2023-11-18T12:14:15;17.60;97.60
35746;DHT22;21870;42.812;74.628;2023-11-18T12:17:04;17.60;99.30
35746;DHT22;21870;42.812;74.628;2023-11-18T12:19:43;17.60;99.90
35746;DHT22;21870;42.812;74.628;2023-11-18T12:22:17;17.60;99.90
35746;DHT22;21870;42.812;74.628;2023-11-18T12:32:59;17.50;99.90
35746;DHT22;21870;42.812;74.628;2023-11-18T12:39:09;17.40;99.90
35746;DHT22;21870;42.812;74.628;2023-11-18T12:41:43;17.40;99.90
35746;DHT22;21870;42.812;74.628;2023-11-18T12:44:30;17.30;99.90
35746;DHT22;21870;42.812;74.628;2023-11-18T12:47:04;17.30;99.90
35746;DHT22;21870;42.812;74.628;2023-11-18T12:49:47;17.30;99.90
35746;DHT22;21870;42.812;74.628;2023-11-18T12:52:21;17.20;99.90
35746;DHT22;21870;42.812;74.628;2023-11-18T12:54:48;17.10;99.90
35746;DHT22;21870;42.812;74.628;2023-11-18T12:57:22;17.10;99.90
35746;DHT22;21870;42.812;74.628;2023-11-18T12:59:52;17.00;99.90
35746;DHT22;21870;42.812;74.628;2023-11-18T13:02:18;17.00;99.90
35746;DHT22;21870;42.812;74.628;2023-11-18T13:04:49;16.90;99.90
35746;DHT22;21870;42.812;74.628;2023-11-18T13:07:19;16.80;99.90
35746;DHT22;21870;42.812;74.628;2023-11-18T13:09:48;16.70;99.90
35746;DHT22;21870;42.812;74.628;2023-11-18T13:12:16;16.80;99.90
35746;DHT22;21870;42.812;74.628;2023-11-18T13:14:45;16.80;99.90
35746;DHT22;21870;42.812;74.628;2023-11-18T13:17:12;16.90;99.90
35746;DHT22;21870;42.812;74.628;2023-11-18T13:19:39;16.70;99.90
35746;DHT22;21870;42.812;74.628;2023-11-18T13:22:08;16.70;99.90
35746;DHT22;21870;42.812;74.628;2023-11-18T13:24:39;16.70;99.90
35746;DHT22;21870;42.812;74.628;2023-11-18T13:27:06;16.60;99.90
35746;DHT22;21870;42.812;74.628;2023-11-18T13:29:33;16.70;99.90
35746;DHT22;21870;42.812;74.628;2023-11-18T13:32:01;16.70;99.90
35746;DHT22;21870;42.812;74.628;2023-11-18T13:34:31;16.70;99.90
35746;DHT22;21870;42.812;74.628;2023-11-18T13:37:08;16.60;99.90
35746;DHT22;21870;42.812;74.628;2023-11-18T13:39:43;16.60;99.90
35746;DHT22;21870;42.812;74.628;2023-11-18T13:42:20;16.60;99.90
35746;DHT22;21870;42.812;74.628;2023-11-18T13:44:47;16.60;99.90
35746;DHT22;21870;42.812;74.628;2023-11-18T13:47:19;16.50;99.90
35746;DHT22;21870;42.812;74.628;2023-11-18T13:49:53;16.40;99.90
35746;DHT22;21870;42.812;74.628;2023-11-18T13:52:20;16.40;99.90
35746;DHT22;21870;42.812;74.628;2023-11-18T13:54:47;16.40;99.90
35746;DHT22;21870;42.812;74.628;2023-11-18T13:57:13;16.30;99.90
35746;DHT22;21870;42.812;74.628;2023-11-18T13:59:39;16.20;99.90
35746;DHT22;21870;42.812;74.628;2023-11-18T14:02:10;16.10;99.90
35746;DHT22;21870;42.812;74.628;2023-11-18T14:04:38;16.10;99.90
35746;DHT22;21870;42.812;74.628;2023-11-18T14:07:05;16.10;99.90
35746;DHT22;21870;42.812;74.628;2023-11-18T14:09:32;16.10;99.90
35746;DHT22;21870;42.812;74.628;2023-11-18T14:12:02;16.00;99.90
35746;DHT22;21870;42.812;74.628;2023-11-18T14:14:32;16.00;99.90
35746;DHT22;21870;42.812;74.628;2023-11-18T14:16:58;16.10;99.90
35746;DHT22;21870;42.812;74.628;2023-11-18T14:19:28;16.20;99.90
35746;DHT22;21870;42.812;74.628;2023-11-18T14:21:59;16.20;99.90
35746;DHT22;21870;42.812;74.628;2023-11-18T14:24:25;16.20;99.90
35746;DHT22;21870;42.812;74.628;2023-11-18T14:26:57;16.20;99.90
35746;DHT22;21870;42.812;74.628;2023-11-18T14:29:24;16.30;99.90
35746;DHT22;21870;42.812;74.628;2023-11-18T14:31:50;16.40;99.90
35746;DHT22;21870;42.812;74.628;2023-11-18T14:34:16;16.40;99.90
35746;DHT22;21870;42.812;74.628;2023-11-18T14:36:43;16.40;99.90
35746;DHT22;21870;42.812;74.628;2023-11-18T14:39:10;16.40;99.90
35746;DHT22;21870;42.812;74.628;2023-11-18T14:41:39;16.40;99.90
35746;DHT22;21870;42.812;74.628;2023-11-18T14:44:06;16.30;99.90
35746;DHT22;21870;42.812;74.628;2023-11-18T14:46:35;16.30;99.90
35746;DHT22;21870;42.812;74.628;2023-11-18T14:49:06;16.20;99.90
35746;DHT22;21870;42.812;74.628;2023-11-18T14:51:33;16.30;99.90
35746;DHT22;21870;42.812;74.628;2023-11-18T14:53:59;16.40;99.90
35746;DHT22;21870;42.812;74.628;2023-11-18T14:56:26;16.40;99.90
35746;DHT22;21870;42.812;74.628;2023-11-18T14:58:52;16.40;99.90
35746;DHT22;21870;42.812;74.628;2023-11-18T15:01:18;16.40;99.90
35746;DHT22;21870;42.812;74.628;2023-11-18T15:03:45;16.50;99.90
35746;DHT22;21870;42.812;74.628;2023-11-18T15:06:14;16.50;99.90
35746;DHT22;21870;42.812;74.628;2023-11-18T15:08:41;16.50;99.90
35746;DHT22;21870;42.812;74.628;2023-11-18T15:11:09;16.60;99.90
35746;DHT22;21870;42.812;74.628;2023-11-18T15:13:35;16.50;99.90
35746;DHT22;21870;42.812;74.628;2023-11-18T15:16:01;16.50;99.90
35746;DHT22;21870;42.812;74.628;2023-11-18T15:18:29;16.40;99.90
35746;DHT22;21870;42.812;74.628;2023-11-18T15:20:55;16.40;99.90
35746;DHT22;21870;42.812;74.628;2023-11-18T15:23:22;16.30;99.90
35746;DHT22;21870;42.812;74.628;2023-11-18T15:25:48;16.20;99.90
35746;DHT22;21870;42.812;74.628;2023-11-18T15:28:18;16.20;99.90
35746;DHT22;21870;42.812;74.628;2023-11-18T15:30:44;16.20;99.90
35746;DHT22;21870;42.812;74.628;2023-11-18T15:33:11;16.20;99.90
35746;DHT22;21870;42.812;74.628;2023-11-18T15:35:39;16.10;99.90
35746;DHT22;21870;42.812;74.628;2023-11-18T15:38:09;16.20;99.90
35746;DHT22;21870;42.812;74.628;2023-11-18T15:40:36;16.10;99.90
35746;DHT22;21870;42.812;74.628;2023-11-18T15:43:03;16.20;99.90
35746;DHT22;21870;42.812;74.628;2023-11-18T15:45:32;16.20;99.90
35746;DHT22;21870;42.812;74.628;2023-11-18T15:48:01;16.10;99.90
35746;DHT22;21870;42.812;74.628;2023-11-18T15:50:32;16.00;99.90
35746;DHT22;21870;42.812;74.628;2023-11-18T15:53:01;15.90;99.90